createdAt,value
2017-08-19T00:00:39.213Z,13.40
2017-08-19T00:03:06.749Z,13.50
2017-08-19T00:05:34.237Z,13.50
2017-08-19T00:08:01.741Z,13.50
2017-08-19T00:10:29.229Z,13.40
2017-08-19T00:12:56.732Z,13.40
2017-08-19T00:15:24.291Z,13.40
2017-08-19T00:17:51.793Z,13.40
2017-08-19T00:20:19.277Z,13.40
2017-08-19T00:22:46.792Z,13.30
2017-08-19T00:25:14.277Z,13.30
2017-08-19T00:27:41.770Z,13.30
2017-08-19T00:30:09.325Z,13.30
2017-08-19T00:32:36.813Z,13.30
2017-08-19T00:35:04.414Z,13.30
2017-08-19T00:37:31.982Z,13.30
2017-08-19T00:39:59.502Z,13.20
2017-08-19T00:42:26.986Z,13.20
2017-08-19T00:44:54.557Z,13.20
2017-08-19T00:47:22.860Z,13.20
2017-08-19T00:49:50.365Z,13.20
2017-08-19T00:52:17.861Z,13.20
2017-08-19T00:54:45.381Z,13.10
2017-08-19T00:57:12.868Z,13.20
2017-08-19T00:59:40.469Z,13.10
2017-08-19T01:02:07.956Z,13.10
2017-08-19T01:04:35.436Z,13.10
2017-08-19T01:07:03.781Z,13.10
2017-08-19T01:09:32.077Z,13.10
2017-08-19T01:11:59.658Z,13.10
2017-08-19T01:14:27.164Z,13.10
2017-08-19T01:16:54.669Z,13.10
2017-08-19T01:19:22.156Z,13.10
2017-08-19T01:21:49.665Z,13.10
2017-08-19T01:24:17.917Z,13.00
2017-08-19T01:26:57.352Z,13.00
2017-08-19T01:29:25.605Z,13.00
2017-08-19T01:31:53.189Z,13.00
2017-08-19T01:34:20.673Z,13.00
2017-08-19T01:36:48.190Z,13.00
2017-08-19T01:39:15.722Z,13.00
2017-08-19T01:41:43.235Z,12.90
2017-08-19T01:44:11.525Z,12.90
2017-08-19T01:46:39.093Z,12.80
2017-08-19T01:49:06.578Z,12.90
2017-08-19T01:51:34.157Z,12.90
2017-08-19T01:54:01.661Z,12.90
2017-08-19T01:56:29.226Z,12.90
2017-08-19T01:58:57.497Z,12.90
2017-08-19T02:01:24.985Z,12.90
2017-08-19T02:03:52.589Z,12.90
2017-08-19T02:06:20.141Z,12.90
2017-08-19T02:08:47.684Z,12.90
2017-08-19T02:11:15.248Z,12.80
2017-08-19T02:13:42.769Z,12.80
2017-08-19T02:16:10.262Z,12.80
2017-08-19T02:18:37.749Z,12.80
2017-08-19T02:21:05.254Z,12.80
2017-08-19T02:23:32.858Z,12.80
2017-08-19T02:26:00.453Z,12.80
2017-08-19T02:28:27.997Z,12.80
2017-08-19T02:30:55.645Z,12.80
2017-08-19T02:33:23.124Z,12.80
2017-08-19T02:35:50.732Z,12.80
2017-08-19T02:38:18.277Z,12.80
2017-08-19T02:40:45.785Z,12.90
2017-08-19T02:43:13.286Z,12.80
2017-08-19T02:45:40.807Z,12.80
2017-08-19T02:48:08.353Z,12.80
2017-08-19T02:50:35.900Z,12.80
2017-08-19T02:53:03.393Z,12.80
2017-08-19T02:55:30.888Z,12.80
2017-08-19T02:57:58.421Z,12.80
2017-08-19T03:00:25.965Z,12.80
2017-08-19T03:02:53.472Z,12.80
2017-08-19T03:05:21.017Z,12.80
2017-08-19T03:07:48.588Z,12.80
2017-08-19T03:10:16.085Z,12.80
2017-08-19T03:12:43.585Z,12.80
2017-08-19T03:15:11.129Z,12.80
2017-08-19T03:17:38.681Z,12.70
2017-08-19T03:20:06.168Z,12.70
2017-08-19T03:22:33.687Z,12.70
2017-08-19T03:25:01.244Z,12.70
2017-08-19T03:27:28.789Z,12.70
2017-08-19T03:29:56.297Z,12.70
2017-08-19T03:32:23.781Z,12.60
2017-08-19T03:34:51.321Z,12.60
2017-08-19T03:37:18.888Z,12.60
2017-08-19T03:39:46.422Z,12.70
2017-08-19T03:42:13.904Z,12.60
2017-08-19T03:44:41.416Z,12.60
2017-08-19T03:47:08.936Z,12.60
2017-08-19T03:49:36.479Z,12.60
2017-08-19T03:52:04.024Z,12.60
2017-08-19T03:54:31.538Z,12.60
2017-08-19T03:56:59.824Z,12.50
2017-08-19T03:59:27.372Z,12.50
2017-08-19T04:01:54.913Z,12.50
2017-08-19T04:04:22.464Z,12.50
2017-08-19T04:06:50.000Z,12.50
2017-08-19T04:09:17.560Z,12.50
2017-08-19T04:11:45.100Z,12.50
2017-08-19T04:14:12.640Z,12.50
2017-08-19T04:16:40.181Z,12.50
2017-08-19T04:19:07.729Z,12.50
2017-08-19T04:21:35.229Z,12.50
2017-08-19T04:24:02.809Z,12.40
2017-08-19T04:26:30.361Z,12.50
2017-08-19T04:28:57.855Z,12.50
2017-08-19T04:31:25.441Z,12.50
2017-08-19T04:33:52.920Z,12.50
2017-08-19T04:36:20.417Z,12.50
2017-08-19T04:38:47.984Z,12.50
2017-08-19T04:41:15.524Z,12.40
2017-08-19T04:43:43.056Z,12.40
2017-08-19T04:46:10.545Z,12.50
2017-08-19T04:48:38.153Z,12.50
2017-08-19T04:51:05.688Z,12.50
2017-08-19T04:53:33.192Z,12.40
2017-08-19T04:56:00.780Z,12.50
2017-08-19T04:58:28.352Z,12.50
2017-08-19T05:00:55.868Z,12.50
2017-08-19T05:03:23.420Z,12.60
2017-08-19T05:05:50.965Z,12.60
2017-08-19T05:08:18.504Z,12.60
2017-08-19T05:10:46.045Z,12.70
2017-08-19T05:13:13.693Z,12.80
2017-08-19T05:15:41.196Z,12.80
2017-08-19T05:18:08.688Z,12.80
2017-08-19T05:20:36.189Z,12.90
2017-08-19T05:23:03.696Z,12.90
2017-08-19T05:25:31.236Z,13.10
2017-08-19T05:27:58.780Z,13.20
2017-08-19T05:30:26.356Z,13.40
2017-08-19T05:32:53.857Z,13.70
2017-08-19T05:35:22.132Z,14.30
2017-08-19T05:37:49.684Z,14.30
2017-08-19T05:40:17.225Z,14.50
2017-08-19T05:42:44.721Z,14.90
2017-08-19T05:45:12.237Z,15.10
2017-08-19T05:47:39.761Z,15.40
2017-08-19T05:50:07.244Z,15.30
2017-08-19T05:52:34.741Z,15.50
2017-08-19T05:55:02.309Z,15.80
2017-08-19T05:57:29.828Z,15.90
2017-08-19T05:59:57.369Z,16.00
2017-08-19T06:02:24.865Z,15.80
2017-08-19T06:04:52.350Z,15.80
2017-08-19T06:07:19.901Z,15.80
2017-08-19T06:09:47.392Z,15.50
2017-08-19T06:12:14.987Z,15.70
2017-08-19T06:14:42.473Z,15.60
2017-08-19T06:17:09.993Z,15.60
2017-08-19T06:19:37.520Z,15.70
2017-08-19T06:22:05.012Z,15.70
2017-08-19T06:24:32.513Z,15.80
2017-08-19T06:27:00.060Z,16.20
2017-08-19T06:29:27.565Z,16.20
2017-08-19T06:31:55.148Z,16.40
2017-08-19T06:34:22.696Z,15.80
2017-08-19T06:36:50.240Z,15.60
2017-08-19T06:39:17.784Z,15.30
2017-08-19T06:41:45.268Z,15.60
2017-08-19T06:44:12.869Z,15.70
2017-08-19T06:46:40.350Z,15.50
2017-08-19T06:49:07.960Z,15.50
2017-08-19T06:51:35.445Z,15.50
2017-08-19T06:54:02.930Z,15.50
2017-08-19T06:56:30.489Z,15.70
2017-08-19T06:58:57.977Z,15.80
2017-08-19T07:01:25.581Z,15.80
2017-08-19T07:03:53.080Z,15.90
2017-08-19T07:06:20.590Z,16.30
2017-08-19T07:08:48.077Z,16.10
2017-08-19T07:11:16.372Z,16.10
2017-08-19T07:13:43.917Z,16.10
2017-08-19T07:16:11.457Z,16.00
2017-08-19T07:18:38.945Z,15.90
2017-08-19T07:21:06.536Z,16.20
2017-08-19T07:23:34.113Z,16.40
2017-08-19T07:26:01.637Z,16.80
2017-08-19T07:28:29.181Z,16.60
2017-08-19T07:30:56.724Z,16.60
2017-08-19T07:33:24.211Z,16.30
2017-08-19T07:35:51.693Z,16.60
2017-08-19T07:38:19.256Z,16.60
2017-08-19T07:40:46.792Z,16.50
2017-08-19T07:43:14.332Z,16.50
2017-08-19T07:45:41.820Z,16.50
2017-08-19T07:48:09.425Z,16.40
2017-08-19T07:50:36.913Z,16.30
2017-08-19T07:53:04.512Z,16.30
2017-08-19T07:55:32.082Z,16.10
2017-08-19T07:57:59.585Z,16.00
2017-08-19T08:00:27.864Z,16.50
2017-08-19T08:02:56.333Z,16.40
2017-08-19T08:05:24.002Z,16.50
2017-08-19T08:07:51.621Z,16.50
2017-08-19T08:10:19.104Z,16.70
2017-08-19T08:12:46.613Z,16.90
2017-08-19T08:15:14.152Z,17.30
2017-08-19T08:17:41.645Z,17.20
2017-08-19T08:20:09.237Z,17.20
2017-08-19T08:22:36.782Z,16.90
2017-08-19T08:25:04.328Z,17.10
2017-08-19T08:27:31.868Z,16.90
2017-08-19T08:29:59.417Z,16.90
2017-08-19T08:32:26.963Z,16.80
2017-08-19T08:34:54.489Z,16.50
2017-08-19T08:37:22.760Z,16.80
2017-08-19T08:39:50.240Z,16.70
2017-08-19T08:42:17.747Z,17.00
2017-08-19T08:44:45.294Z,17.20
2017-08-19T08:47:12.846Z,16.90
2017-08-19T08:49:40.388Z,16.80
2017-08-19T08:52:07.904Z,17.00
2017-08-19T08:54:36.158Z,17.60
2017-08-19T08:57:04.429Z,17.20
2017-08-19T08:59:32.692Z,17.10
2017-08-19T09:02:01.068Z,16.90
2017-08-19T09:04:28.555Z,16.90
2017-08-19T09:06:56.060Z,17.20
2017-08-19T09:09:23.604Z,17.40
2017-08-19T09:11:51.140Z,17.50
2017-08-19T09:14:18.714Z,17.50
2017-08-19T09:16:46.233Z,17.60
2017-08-19T09:19:13.780Z,17.50
2017-08-19T09:21:41.322Z,17.70
2017-08-19T09:24:08.805Z,18.40
2017-08-19T09:26:36.300Z,18.60
2017-08-19T09:29:04.052Z,18.50
2017-08-19T09:31:31.593Z,18.40
2017-08-19T09:33:59.152Z,18.30
2017-08-19T09:36:26.689Z,18.60
2017-08-19T09:38:54.332Z,18.30
2017-08-19T09:41:21.876Z,18.40
2017-08-19T09:43:49.377Z,18.70
2017-08-19T09:46:16.970Z,17.90
2017-08-19T09:48:44.504Z,17.80
2017-08-19T09:51:12.053Z,17.40
2017-08-19T09:53:40.417Z,17.90
2017-08-19T09:56:07.908Z,17.90
2017-08-19T09:58:35.408Z,17.90
2017-08-19T10:01:02.896Z,17.70
2017-08-19T10:03:30.502Z,17.50
2017-08-19T10:05:58.036Z,17.60
2017-08-19T10:08:37.577Z,17.80
2017-08-19T10:11:17.044Z,18.50
2017-08-19T10:13:44.568Z,18.90
2017-08-19T10:16:12.142Z,18.90
2017-08-19T10:18:39.643Z,19.50
2017-08-19T10:21:07.148Z,19.40
2017-08-19T10:23:34.633Z,19.50
2017-08-19T10:26:02.189Z,20.20
2017-08-19T10:28:29.738Z,21.30
2017-08-19T10:30:57.249Z,20.80
2017-08-19T10:33:25.508Z,20.50
2017-08-19T10:35:53.801Z,21.10
2017-08-19T10:38:21.357Z,21.10
2017-08-19T10:40:48.890Z,20.60
2017-08-19T10:43:16.455Z,20.80
2017-08-19T10:45:43.957Z,20.90
2017-08-19T10:48:12.332Z,23.00
2017-08-19T10:50:39.865Z,23.00
2017-08-19T10:53:07.417Z,22.30
2017-08-19T10:55:34.965Z,21.60
2017-08-19T10:58:02.509Z,20.60
2017-08-19T11:00:30.021Z,21.20
2017-08-19T11:02:57.561Z,22.70
2017-08-19T11:05:25.072Z,22.00
2017-08-19T11:07:52.624Z,22.60
2017-08-19T11:10:20.142Z,22.60
2017-08-19T11:12:47.653Z,23.80
2017-08-19T11:15:15.928Z,24.10
2017-08-19T11:17:43.473Z,24.10
2017-08-19T11:20:11.034Z,24.30
2017-08-19T11:22:38.542Z,24.30
2017-08-19T11:25:06.933Z,23.30
2017-08-19T11:27:34.435Z,23.30
2017-08-19T11:30:02.017Z,23.30
2017-08-19T11:32:29.518Z,23.50
2017-08-19T11:34:57.008Z,22.00
2017-08-19T11:37:24.544Z,22.30
2017-08-19T11:39:52.060Z,22.70
2017-08-19T11:42:20.355Z,21.60
2017-08-19T11:44:47.849Z,21.50
2017-08-19T11:47:15.368Z,21.70
2017-08-19T11:49:42.876Z,21.50
2017-08-19T11:52:10.365Z,22.50
2017-08-19T11:54:37.868Z,23.00
2017-08-19T11:57:05.349Z,22.10
2017-08-19T11:59:32.849Z,22.90
2017-08-19T12:02:00.339Z,23.30
2017-08-19T12:04:27.838Z,24.40
2017-08-19T12:06:55.420Z,24.70
2017-08-19T12:09:22.928Z,25.00
2017-08-19T12:11:50.573Z,25.70
2017-08-19T12:14:18.078Z,24.00
2017-08-19T12:16:45.569Z,23.60
2017-08-19T12:19:13.086Z,24.60
2017-08-19T12:21:41.340Z,22.90
2017-08-19T12:24:09.612Z,22.40
2017-08-19T12:26:37.120Z,22.40
2017-08-19T12:29:04.609Z,22.40
2017-08-19T12:31:32.179Z,22.50
2017-08-19T12:33:59.696Z,22.20
2017-08-19T12:36:27.237Z,22.80
2017-08-19T12:38:54.887Z,23.10
2017-08-19T12:41:22.397Z,23.70
2017-08-19T12:43:49.989Z,23.00
2017-08-19T12:46:17.513Z,22.50
2017-08-19T12:48:45.009Z,22.20
2017-08-19T12:51:12.611Z,22.10
2017-08-19T12:53:40.596Z,21.50
2017-08-19T12:56:08.236Z,21.90
2017-08-19T12:58:35.752Z,21.90
2017-08-19T13:01:03.397Z,21.70
2017-08-19T13:03:30.877Z,21.80
2017-08-19T13:05:58.401Z,22.20
2017-08-19T13:08:25.896Z,22.60
2017-08-19T13:10:54.193Z,23.90
2017-08-19T13:13:21.710Z,23.80
2017-08-19T13:15:49.993Z,26.80
2017-08-19T13:18:17.500Z,26.70
2017-08-19T13:20:45.006Z,26.00
2017-08-19T13:23:12.508Z,25.30
2017-08-19T13:25:40.167Z,25.50
2017-08-19T13:28:07.839Z,27.10
2017-08-19T13:30:35.378Z,26.80
2017-08-19T13:33:03.943Z,27.00
2017-08-19T13:35:42.662Z,27.90
2017-08-19T13:38:10.292Z,27.90
2017-08-19T13:40:46.959Z,27.90
2017-08-19T13:43:15.480Z,27.20
2017-08-19T13:45:43.150Z,27.20
2017-08-19T13:48:14.099Z,26.00
2017-08-19T13:50:41.612Z,26.50
2017-08-19T13:53:09.128Z,26.50
2017-08-19T13:55:36.758Z,25.20
2017-08-19T13:58:04.244Z,24.20
2017-08-19T14:00:31.757Z,23.20
2017-08-19T14:02:59.245Z,23.20
2017-08-19T14:05:26.740Z,22.90
2017-08-19T14:07:55.020Z,22.00
2017-08-19T14:10:22.561Z,22.00
2017-08-19T14:12:50.045Z,21.60
2017-08-19T14:15:17.580Z,21.30
2017-08-19T14:17:45.077Z,21.00
2017-08-19T14:20:13.362Z,19.20
2017-08-19T14:22:40.848Z,19.20
2017-08-19T14:25:08.371Z,18.80
2017-08-19T14:27:35.988Z,18.70
2017-08-19T14:30:03.562Z,18.70
2017-08-19T14:32:31.045Z,18.70
2017-08-19T14:34:58.733Z,18.80
2017-08-19T14:37:26.224Z,18.60
2017-08-19T14:39:53.806Z,18.70
2017-08-19T14:42:21.298Z,18.80
2017-08-19T14:44:48.898Z,19.00
2017-08-19T14:47:16.396Z,18.90
2017-08-19T14:49:43.990Z,18.70
2017-08-19T14:52:12.605Z,18.80
2017-08-19T14:54:40.092Z,18.60
2017-08-19T14:57:07.609Z,18.80
2017-08-19T14:59:35.095Z,19.20
2017-08-19T15:02:02.593Z,19.50
2017-08-19T15:04:30.080Z,19.40
2017-08-19T15:06:57.578Z,19.50
2017-08-19T15:09:25.881Z,19.50
2017-08-19T15:11:53.427Z,19.50
2017-08-19T15:14:20.965Z,19.70
2017-08-19T15:16:48.509Z,19.70
2017-08-19T15:19:15.996Z,19.60
2017-08-19T15:21:43.513Z,19.50
2017-08-19T15:24:11.021Z,19.50
2017-08-19T15:26:39.268Z,19.80
2017-08-19T15:29:06.772Z,19.80
2017-08-19T15:31:34.390Z,19.70
2017-08-19T15:34:01.953Z,19.70
2017-08-19T15:36:29.473Z,19.60
2017-08-19T15:38:57.021Z,19.50
2017-08-19T15:41:24.527Z,19.80
2017-08-19T15:43:52.850Z,19.80
2017-08-19T15:46:20.337Z,19.80
2017-08-19T15:48:48.612Z,19.90
2017-08-19T15:51:16.096Z,19.90
2017-08-19T15:53:43.626Z,19.70
2017-08-19T15:56:11.122Z,19.90
2017-08-19T15:58:38.706Z,19.70
2017-08-19T16:01:06.200Z,19.60
2017-08-19T16:03:33.700Z,19.40
2017-08-19T16:06:01.197Z,19.30
2017-08-19T16:08:28.721Z,19.10
2017-08-19T16:10:56.219Z,18.90
2017-08-19T16:13:23.706Z,18.80
2017-08-19T16:15:51.212Z,18.80
2017-08-19T16:18:18.740Z,18.80
2017-08-19T16:20:46.290Z,18.80
2017-08-19T16:23:13.843Z,18.60
2017-08-19T16:25:41.498Z,18.60
2017-08-19T16:28:09.054Z,18.50
2017-08-19T16:30:36.582Z,18.40
2017-08-19T16:33:04.114Z,18.30
2017-08-19T16:35:31.608Z,18.30
2017-08-19T16:37:59.206Z,18.30
2017-08-19T16:40:26.705Z,18.30
2017-08-19T16:42:54.289Z,18.20
2017-08-19T16:45:21.833Z,17.90
2017-08-19T16:47:49.317Z,17.80
2017-08-19T16:50:16.928Z,17.80
2017-08-19T16:52:44.447Z,17.80
2017-08-19T16:55:11.980Z,17.70
2017-08-19T16:57:40.272Z,17.80
2017-08-19T17:00:07.812Z,17.80
2017-08-19T17:02:35.318Z,17.90
2017-08-19T17:05:02.896Z,17.80
2017-08-19T17:07:30.401Z,17.80
2017-08-19T17:09:57.914Z,17.70
2017-08-19T17:12:25.408Z,17.60
2017-08-19T17:14:53.689Z,17.60
2017-08-19T17:17:21.241Z,17.60
2017-08-19T17:19:48.728Z,17.70
2017-08-19T17:22:16.232Z,17.40
2017-08-19T17:24:43.721Z,17.30
2017-08-19T17:27:11.233Z,17.30
2017-08-19T17:29:38.764Z,17.30
2017-08-19T17:32:06.365Z,17.20
2017-08-19T17:34:33.985Z,17.30
2017-08-19T17:37:01.592Z,17.20
2017-08-19T17:39:29.077Z,17.20
2017-08-19T17:41:56.580Z,17.20
2017-08-19T17:44:24.120Z,17.20
2017-08-19T17:46:51.653Z,17.30
2017-08-19T17:49:19.226Z,17.30
2017-08-19T17:51:46.749Z,17.30
2017-08-19T17:54:24.171Z,17.20
2017-08-19T17:56:51.764Z,17.00
2017-08-19T17:59:19.297Z,17.10
2017-08-19T18:01:46.888Z,17.10
2017-08-19T18:04:14.401Z,17.10
2017-08-19T18:06:41.892Z,16.90
2017-08-19T18:09:09.492Z,17.00
2017-08-19T18:11:36.983Z,16.90
2017-08-19T18:14:04.605Z,16.90
2017-08-19T18:16:32.121Z,17.00
2017-08-19T18:18:59.629Z,16.90
2017-08-19T18:21:27.208Z,17.00
2017-08-19T18:23:54.721Z,16.90
2017-08-19T18:26:22.205Z,16.80
2017-08-19T18:28:49.727Z,16.80
2017-08-19T18:31:17.280Z,16.70
2017-08-19T18:33:44.764Z,16.60
2017-08-19T18:36:12.376Z,16.60
2017-08-19T18:38:39.908Z,16.60
2017-08-19T18:41:07.456Z,16.60
2017-08-19T18:43:35.012Z,16.50
2017-08-19T18:46:02.509Z,16.60
2017-08-19T18:48:30.096Z,16.40
2017-08-19T18:50:57.741Z,16.40
2017-08-19T18:53:25.281Z,16.30
2017-08-19T18:55:52.796Z,16.20
2017-08-19T18:58:21.084Z,16.00
2017-08-19T19:00:48.632Z,16.00
2017-08-19T19:03:16.203Z,15.90
2017-08-19T19:05:43.684Z,15.90
2017-08-19T19:08:11.265Z,15.80
2017-08-19T19:10:38.766Z,15.80
2017-08-19T19:13:06.269Z,15.70
2017-08-19T19:15:33.820Z,15.70
2017-08-19T19:18:01.362Z,15.70
2017-08-19T19:20:28.891Z,15.60
2017-08-19T19:22:56.425Z,15.60
2017-08-19T19:25:23.908Z,15.70
2017-08-19T19:27:51.407Z,15.60
2017-08-19T19:30:18.892Z,15.70
2017-08-19T19:32:46.461Z,15.80
2017-08-19T19:35:13.945Z,15.80
2017-08-19T19:37:41.586Z,15.80
2017-08-19T19:40:09.135Z,15.80
2017-08-19T19:42:36.700Z,15.80
2017-08-19T19:45:04.228Z,15.80
2017-08-19T19:47:32.689Z,15.80
2017-08-19T19:50:00.256Z,15.80
2017-08-19T19:52:27.770Z,15.80
2017-08-19T19:54:55.308Z,15.80
2017-08-19T19:57:22.885Z,15.80
2017-08-19T19:59:50.428Z,15.80
2017-08-19T20:02:17.949Z,15.80
2017-08-19T20:04:45.490Z,15.80
2017-08-19T20:07:13.061Z,15.80
2017-08-19T20:09:40.556Z,15.80
2017-08-19T20:12:08.849Z,15.70
2017-08-19T20:14:36.390Z,15.70
2017-08-19T20:17:03.872Z,15.60
2017-08-19T20:19:31.470Z,15.60
2017-08-19T20:21:59.021Z,15.70
2017-08-19T20:24:26.556Z,15.60
2017-08-19T20:26:54.105Z,15.60
2017-08-19T20:29:21.592Z,15.60
2017-08-19T20:31:49.192Z,15.60
2017-08-19T20:34:16.673Z,15.60
2017-08-19T20:36:44.281Z,15.50
2017-08-19T20:39:11.761Z,15.40
2017-08-19T20:41:39.292Z,15.40
2017-08-19T20:44:06.813Z,15.30
2017-08-19T20:46:34.358Z,15.30
2017-08-19T20:49:01.841Z,15.20
2017-08-19T20:51:29.384Z,15.20
2017-08-19T20:53:56.868Z,15.10
2017-08-19T20:56:25.139Z,15.10
2017-08-19T20:58:52.713Z,15.10
2017-08-19T21:01:20.223Z,15.20
2017-08-19T21:03:47.802Z,15.10
2017-08-19T21:06:15.336Z,15.10
2017-08-19T21:08:42.825Z,15.10
2017-08-19T21:11:10.309Z,15.10
2017-08-19T21:13:37.854Z,15.00
2017-08-19T21:16:05.332Z,14.90
2017-08-19T21:18:32.823Z,14.90
2017-08-19T21:21:00.313Z,14.80
2017-08-19T21:23:27.817Z,14.80
2017-08-19T21:25:55.365Z,14.80
2017-08-19T21:28:22.869Z,14.70
2017-08-19T21:30:50.452Z,14.70
2017-08-19T21:33:17.953Z,14.70
2017-08-19T21:35:45.445Z,14.70
2017-08-19T21:38:13.111Z,14.70
2017-08-19T21:40:40.637Z,14.70
2017-08-19T21:43:08.174Z,14.70
2017-08-19T21:45:35.721Z,14.70
2017-08-19T21:48:03.200Z,14.70
2017-08-19T21:50:30.699Z,14.70
2017-08-19T21:52:58.202Z,14.60
2017-08-19T21:55:25.783Z,14.60
2017-08-19T21:57:53.264Z,14.60
2017-08-19T22:00:20.769Z,14.60
2017-08-19T22:02:48.320Z,14.60
2017-08-19T22:05:15.820Z,14.60
2017-08-19T22:07:43.349Z,14.50
2017-08-19T22:10:10.853Z,14.50
2017-08-19T22:12:38.408Z,14.50
2017-08-19T22:15:05.979Z,14.40
2017-08-19T22:17:33.464Z,14.40
2017-08-19T22:20:01.771Z,14.40
2017-08-19T22:22:29.256Z,14.40
2017-08-19T22:24:57.536Z,14.30
2017-08-19T22:27:25.104Z,14.30
2017-08-19T22:29:52.636Z,14.30
2017-08-19T22:32:20.173Z,14.30
2017-08-19T22:34:48.586Z,14.30
2017-08-19T22:37:16.185Z,14.30
2017-08-19T22:39:43.672Z,14.20
2017-08-19T22:42:11.181Z,14.20
2017-08-19T22:44:38.664Z,14.10
2017-08-19T22:47:06.272Z,14.10
2017-08-19T22:49:33.809Z,14.20
2017-08-19T22:52:01.457Z,14.10
2017-08-19T22:54:29.102Z,14.10
2017-08-19T22:56:56.640Z,14.20
2017-08-19T22:59:24.122Z,14.20
2017-08-19T23:01:51.642Z,14.20
2017-08-19T23:04:19.168Z,14.20
2017-08-19T23:06:46.656Z,14.20
2017-08-19T23:09:14.155Z,14.20
2017-08-19T23:11:41.664Z,14.30
2017-08-19T23:14:09.184Z,14.30
2017-08-19T23:16:36.688Z,14.30
2017-08-19T23:19:04.260Z,14.40
2017-08-19T23:21:31.780Z,14.40
2017-08-19T23:23:59.281Z,14.40
2017-08-19T23:26:26.889Z,14.40
2017-08-19T23:28:54.404Z,14.40
2017-08-19T23:31:21.884Z,14.40
2017-08-19T23:33:49.400Z,14.40
2017-08-19T23:36:16.932Z,14.40
2017-08-19T23:38:44.417Z,14.40
2017-08-19T23:41:11.961Z,14.50
2017-08-19T23:43:39.464Z,14.50
2017-08-19T23:46:06.970Z,14.50
2017-08-19T23:48:34.467Z,14.50
2017-08-19T23:51:01.985Z,14.50
2017-08-19T23:53:29.479Z,14.50
2017-08-19T23:55:57.076Z,14.40
2017-08-19T23:58:24.561Z,14.40
